createdAt,value
2022-09-02T00:02:01.223Z,101338.66
2022-09-02T00:04:32.211Z,101337.95
2022-09-02T00:07:02.672Z,101339.67
2022-09-02T00:09:33.153Z,101338.32
2022-09-02T00:12:03.685Z,101342.47
2022-09-02T00:14:38.161Z,101338.30
2022-09-02T00:17:08.803Z,101335.52
2022-09-02T00:19:39.281Z,101339.86
2022-09-02T00:22:09.912Z,101336.58
2022-09-02T00:24:40.712Z,101336.40
2022-09-02T00:27:11.084Z,101336.21
2022-09-02T00:29:41.472Z,101335.54
2022-09-02T00:32:11.996Z,101332.59
2022-09-02T00:34:42.654Z,101333.97
2022-09-02T00:37:14.642Z,101328.10
2022-09-02T00:39:45.642Z,101334.14
2022-09-02T00:42:18.653Z,101335.02
2022-09-02T00:44:49.323Z,101332.42
2022-09-02T00:47:19.940Z,101328.95
2022-09-02T00:49:55.339Z,101329.98
2022-09-02T00:52:31.242Z,101327.23
2022-09-02T00:55:06.982Z,101325.99
2022-09-02T00:57:52.747Z,101331.34
2022-09-02T01:00:34.444Z,101328.74
2022-09-02T01:03:08.882Z,101330.13
2022-09-02T01:05:45.313Z,101336.69
2022-09-02T01:08:21.261Z,101342.41
2022-09-02T01:10:52.651Z,101340.51
2022-09-02T01:13:26.532Z,101340.33
2022-09-02T01:16:23.532Z,101341.73
2022-09-02T01:18:58.613Z,101338.60
2022-09-02T01:21:29.802Z,101340.15
2022-09-02T01:24:01.392Z,101345.55
2022-09-02T01:26:34.066Z,101341.89
2022-09-02T01:29:04.688Z,101340.50
2022-09-02T01:31:35.168Z,101344.65
2022-09-02T01:34:07.002Z,101341.73
2022-09-02T01:36:41.311Z,101342.58
2022-09-02T01:39:14.111Z,101341.35
2022-09-02T01:41:44.751Z,101338.77
2022-09-02T01:44:16.588Z,101337.89
2022-09-02T01:46:47.598Z,101340.14
2022-09-02T01:49:20.439Z,101335.29
2022-09-02T01:51:51.662Z,101333.04
2022-09-02T01:54:22.282Z,101333.20
2022-09-02T01:56:53.942Z,101342.02
2022-09-02T01:59:26.542Z,101341.31
2022-09-02T02:01:57.045Z,101350.15
2022-09-02T02:04:28.065Z,101343.08
2022-09-02T02:06:59.974Z,101346.89
2022-09-02T02:09:30.802Z,101350.00
2022-09-02T02:12:01.597Z,101350.35
2022-09-02T02:14:33.182Z,101350.66
2022-09-02T02:17:03.722Z,101350.67
2022-09-02T02:19:34.262Z,101352.75
2022-09-02T02:22:05.381Z,101350.69
2022-09-02T02:24:37.051Z,101350.35
2022-09-02T02:27:08.012Z,101349.31
2022-09-02T02:29:38.562Z,101355.19
2022-09-02T02:32:09.472Z,101349.45
2022-09-02T02:34:40.833Z,101346.67
2022-09-02T02:37:12.711Z,101343.73
2022-09-02T02:39:44.845Z,101347.20
2022-09-02T02:42:17.713Z,101347.20
2022-09-02T02:44:51.456Z,101347.20
2022-09-02T02:47:24.701Z,101351.01
2022-09-02T02:49:55.524Z,101349.79
2022-09-02T02:52:26.004Z,101353.78
2022-09-02T02:54:56.972Z,101353.77
2022-09-02T02:57:27.463Z,101356.89
2022-09-02T02:59:58.492Z,101356.03
2022-09-02T03:02:33.724Z,101353.27
2022-09-02T03:05:08.149Z,101353.09
2022-09-02T03:07:41.194Z,101350.67
2022-09-02T03:10:13.521Z,101350.17
2022-09-02T03:12:45.322Z,101350.31
2022-09-02T03:15:18.781Z,101353.91
2022-09-02T03:17:50.871Z,101353.05
2022-09-02T03:20:23.208Z,101354.95
2022-09-02T03:22:59.946Z,101352.70
2022-09-02T03:25:35.997Z,101356.16
2022-09-02T03:28:12.350Z,101358.59
2022-09-02T03:30:43.901Z,101356.81
2022-09-02T03:33:14.754Z,101355.38
2022-09-02T03:35:46.899Z,101354.66
2022-09-02T03:38:18.734Z,101358.13
2022-09-02T03:40:51.884Z,101361.06
2022-09-02T03:43:23.072Z,101362.95
2022-09-02T03:45:54.271Z,101368.98
2022-09-02T03:48:25.050Z,101365.50
2022-09-02T03:50:56.479Z,101365.48
2022-09-02T03:53:27.264Z,101365.66
2022-09-02T03:56:05.701Z,101365.15
2022-09-02T03:58:37.543Z,101365.84
2022-09-02T04:01:09.110Z,101365.63
2022-09-02T04:03:39.810Z,101370.42
2022-09-02T04:06:15.945Z,101369.52
2022-09-02T04:08:47.690Z,101371.42
2022-09-02T04:11:23.551Z,101368.69
2022-09-02T04:13:55.710Z,101374.23
2022-09-02T04:16:29.360Z,101377.54
2022-09-02T04:19:07.014Z,101374.77
2022-09-02T04:21:40.228Z,101378.41
2022-09-02T04:24:13.132Z,101376.15
2022-09-02T04:26:47.434Z,101380.25
2022-09-02T04:29:21.422Z,101380.88
2022-09-02T04:31:53.352Z,101381.23
2022-09-02T04:34:25.241Z,101381.77
2022-09-02T04:36:57.273Z,101381.11
2022-09-02T04:39:27.860Z,101383.39
2022-09-02T04:41:58.341Z,101383.05
2022-09-02T04:44:29.101Z,101382.64
2022-09-02T04:47:00.002Z,101384.79
2022-09-02T04:49:33.172Z,101383.89
2022-09-02T04:52:03.902Z,101378.89
2022-09-02T04:54:36.073Z,101385.29
2022-09-02T04:57:08.413Z,101388.45
2022-09-02T04:59:39.401Z,101387.63
2022-09-02T05:02:13.013Z,101389.88
2022-09-02T05:04:43.991Z,101392.17
2022-09-02T05:07:21.071Z,101391.69
2022-09-02T05:09:52.091Z,101389.98
2022-09-02T05:12:23.011Z,101391.20
2022-09-02T05:14:59.872Z,101391.90
2022-09-02T05:17:32.309Z,101391.55
2022-09-02T05:20:06.124Z,101389.65
2022-09-02T05:22:38.480Z,101389.52
2022-09-02T05:25:10.067Z,101388.84
2022-09-02T05:27:40.853Z,101385.40
2022-09-02T05:30:11.730Z,101388.34
2022-09-02T05:32:42.753Z,101389.55
2022-09-02T05:35:13.592Z,101385.96
2022-09-02T05:37:46.271Z,101389.09
2022-09-02T05:40:17.091Z,101391.16
2022-09-02T05:42:53.651Z,101396.35
2022-09-02T05:45:28.079Z,101395.33
2022-09-02T05:47:58.579Z,101398.78
2022-09-02T05:50:31.896Z,101393.95
2022-09-02T05:53:03.201Z,101394.11
2022-09-02T05:55:33.852Z,101400.73
2022-09-02T05:58:06.008Z,101402.29
2022-09-02T06:00:38.334Z,101406.09
2022-09-02T06:03:11.217Z,101404.55
2022-09-02T06:05:43.321Z,101404.56
2022-09-02T06:08:25.222Z,101403.54
2022-09-02T06:10:55.940Z,101402.52
2022-09-02T06:13:32.441Z,101404.60
2022-09-02T06:16:03.395Z,101401.66
2022-09-02T06:18:36.476Z,101405.30
2022-09-02T06:21:08.996Z,101404.61
2022-09-02T06:24:01.073Z,101403.10
2022-09-02T06:26:32.664Z,101404.14
2022-09-02T06:29:05.017Z,101402.61
2022-09-02T06:31:37.063Z,101401.23
2022-09-02T06:34:08.300Z,101405.77
2022-09-02T06:36:38.992Z,101402.48
2022-09-02T06:39:12.532Z,101403.35
2022-09-02T06:41:47.242Z,101402.86
2022-09-02T06:44:19.398Z,101399.05
2022-09-02T06:47:05.722Z,101402.91
2022-09-02T06:49:38.174Z,101397.56
2022-09-02T06:52:16.171Z,101398.61
2022-09-02T06:54:49.516Z,101400.16
2022-09-02T06:57:20.243Z,101401.55
2022-09-02T06:59:53.024Z,101403.27
2022-09-02T07:03:08.883Z,101404.10
2022-09-02T07:05:39.646Z,101402.50
2022-09-02T07:08:10.717Z,101402.48
2022-09-02T07:10:43.061Z,101401.58
2022-09-02T07:13:42.885Z,101401.35
2022-09-02T07:16:15.661Z,101404.55
2022-09-02T07:18:58.106Z,101401.54
2022-09-02T07:21:33.816Z,101401.61
2022-09-02T07:24:05.192Z,101394.17
2022-09-02T07:26:47.554Z,101393.70
2022-09-02T07:29:25.852Z,101396.66
2022-09-02T07:31:57.616Z,101397.35
2022-09-02T07:34:35.938Z,101399.95
2022-09-02T07:37:11.841Z,101398.54
2022-09-02T07:39:44.459Z,101402.54
2022-09-02T07:42:16.236Z,101397.19
2022-09-02T07:44:47.196Z,101401.92
2022-09-02T07:47:18.851Z,101404.69
2022-09-02T07:52:41.022Z,101399.46
2022-09-02T07:55:15.642Z,101396.31
2022-09-02T07:57:48.243Z,101397.70
2022-09-02T08:00:21.584Z,101395.98
2022-09-02T08:03:15.823Z,101397.23
2022-09-02T08:06:33.727Z,101395.39
2022-09-02T08:09:28.299Z,101397.69
2022-09-02T08:11:59.537Z,101398.89
2022-09-02T08:14:31.393Z,101400.95
2022-09-02T08:17:02.937Z,101395.66
2022-09-02T08:19:34.328Z,101394.85
2022-09-02T08:22:07.429Z,101391.67
2022-09-02T08:24:38.397Z,101394.46
2022-09-02T08:27:08.945Z,101399.33
2022-09-02T08:29:40.844Z,101398.20
2022-09-02T08:32:11.609Z,101399.48
2022-09-02T08:34:42.356Z,101399.41
2022-09-02T08:37:13.195Z,101402.96
2022-09-02T08:39:43.688Z,101398.86
2022-09-02T08:42:22.589Z,101396.69
2022-09-02T08:45:01.683Z,101395.96
2022-09-02T08:47:35.383Z,101394.09
2022-09-02T08:50:15.213Z,101399.92
2022-09-02T08:53:30.695Z,101391.33
2022-09-02T08:56:03.160Z,101388.35
2022-09-02T08:58:47.524Z,101393.05
2022-09-02T09:01:32.109Z,101392.02
2022-09-02T09:04:19.084Z,101393.20
2022-09-02T09:10:22.494Z,101383.69
2022-09-02T09:13:30.283Z,101381.65
2022-09-02T09:16:16.514Z,101379.13
2022-09-02T09:18:54.463Z,101376.90
2022-09-02T09:24:06.138Z,101374.73
2022-09-02T09:26:41.688Z,101368.65
2022-09-02T09:29:13.322Z,101371.48
2022-09-02T09:31:48.370Z,101372.45
2022-09-02T09:34:18.945Z,101366.78
2022-09-02T09:36:56.324Z,101368.39
2022-09-02T09:39:32.536Z,101370.83
2022-09-02T09:42:15.829Z,101372.41
2022-09-02T09:44:48.719Z,101365.95
2022-09-02T09:47:23.341Z,101363.07
2022-09-02T09:49:56.766Z,101360.55
2022-09-02T09:52:29.719Z,101354.85
2022-09-02T09:55:22.748Z,101357.48
2022-09-02T09:57:55.442Z,101354.50
2022-09-02T10:00:43.851Z,101354.38
2022-09-02T10:03:57.036Z,101350.71
2022-09-02T10:06:49.490Z,101349.45
2022-09-02T10:09:20.312Z,101347.85
2022-09-02T10:11:59.799Z,101344.16
2022-09-02T10:14:55.207Z,101344.21
2022-09-02T10:17:43.245Z,101347.88
2022-09-02T10:20:48.479Z,101345.83
2022-09-02T10:23:46.195Z,101345.85
2022-09-02T10:26:44.494Z,101350.60
2022-09-02T10:29:40.013Z,101351.21
2022-09-02T10:32:39.064Z,101352.05
2022-09-02T10:35:26.814Z,101356.23
2022-09-02T10:38:31.732Z,101357.72
2022-09-02T10:41:09.711Z,101353.25
2022-09-02T10:44:20.529Z,101357.56
2022-09-02T10:47:23.247Z,101354.98
2022-09-02T10:50:30.070Z,101349.55
2022-09-02T10:53:19.796Z,101352.98
2022-09-02T10:56:05.747Z,101351.18
2022-09-02T10:58:50.833Z,101348.98
2022-09-02T11:01:30.867Z,101348.02
2022-09-02T11:04:21.076Z,101343.13
2022-09-02T11:07:03.215Z,101348.95
2022-09-02T11:09:46.887Z,101344.80
2022-09-02T11:12:28.975Z,101343.89
2022-09-02T11:15:12.136Z,101342.39
2022-09-02T11:17:45.855Z,101337.76
2022-09-02T11:20:45.410Z,101338.30
2022-09-02T11:23:38.342Z,101328.08
2022-09-02T11:26:26.560Z,101324.08
2022-09-02T11:29:25.518Z,101321.02
2022-09-02T11:32:14.852Z,101331.23
2022-09-02T11:34:52.738Z,101329.69
2022-09-02T11:37:42.204Z,101327.27
2022-09-02T11:40:39.183Z,101327.59
2022-09-02T11:43:31.447Z,101320.91
2022-09-02T11:46:21.651Z,101328.67
2022-09-02T11:49:13.638Z,101323.77
2022-09-02T11:51:47.301Z,101325.01
2022-09-02T11:54:21.385Z,101323.15
2022-09-02T11:56:58.504Z,101317.05
2022-09-02T11:59:53.511Z,101315.89
2022-09-02T12:02:43.700Z,101313.71
2022-09-02T12:05:32.831Z,101313.89
2022-09-02T12:08:13.667Z,101310.73
2022-09-02T12:10:45.687Z,101311.77
2022-09-02T12:13:41.503Z,101308.66
2022-09-02T12:16:15.943Z,101303.41
2022-09-02T12:18:55.945Z,101300.95
2022-09-02T12:21:28.545Z,101302.34
2022-09-02T12:23:59.318Z,101302.73
2022-09-02T12:26:52.839Z,101300.04
2022-09-02T12:29:35.320Z,101303.45
2022-09-02T12:32:07.530Z,101303.98
2022-09-02T12:34:38.177Z,101297.56
2022-09-02T12:37:08.578Z,101299.77
2022-09-02T12:39:42.655Z,101295.38
2022-09-02T12:42:26.585Z,101289.73
2022-09-02T12:45:13.957Z,101287.59
2022-09-02T12:48:11.718Z,101278.55
2022-09-02T12:51:00.594Z,101280.71
2022-09-02T12:53:31.825Z,101282.55
2022-09-02T12:56:07.352Z,101286.09
2022-09-02T12:58:43.380Z,101289.60
2022-09-02T13:01:32.460Z,101286.06
2022-09-02T13:04:48.208Z,101289.80
2022-09-02T13:07:59.115Z,101285.52
2022-09-02T13:10:54.088Z,101281.59
2022-09-02T13:13:49.047Z,101284.20
2022-09-02T13:16:59.291Z,101286.35
2022-09-02T13:20:20.801Z,101286.72
2022-09-02T13:23:31.353Z,101285.89
2022-09-02T13:26:45.874Z,101281.73
2022-09-02T13:29:38.070Z,101276.92
2022-09-02T13:32:25.139Z,101283.02
2022-09-02T13:35:01.902Z,101278.27
2022-09-02T13:37:46.295Z,101280.29
2022-09-02T13:40:23.598Z,101272.66
2022-09-02T13:42:59.732Z,101268.34
2022-09-02T13:45:39.878Z,101269.44
2022-09-02T13:48:28.579Z,101270.23
2022-09-02T13:51:04.767Z,101272.20
2022-09-02T13:53:45.586Z,101269.84
2022-09-02T13:56:37.598Z,101272.80
2022-09-02T13:59:08.256Z,101268.58
2022-09-02T14:01:41.216Z,101268.91
2022-09-02T14:04:16.061Z,101264.23
2022-09-02T14:06:49.483Z,101262.96
2022-09-02T14:09:33.628Z,101263.23
2022-09-02T14:12:06.888Z,101257.17
2022-09-02T14:14:38.158Z,101256.77
2022-09-02T14:17:26.603Z,101255.45
2022-09-02T14:20:20.879Z,101259.34
2022-09-02T14:22:58.199Z,101261.96
2022-09-02T14:25:34.219Z,101255.30
2022-09-02T14:28:11.037Z,101252.81
2022-09-02T14:30:43.474Z,101251.40
2022-09-02T14:33:38.248Z,101246.19
2022-09-02T14:36:18.217Z,101241.10
2022-09-02T14:38:49.021Z,101243.19
2022-09-02T14:41:19.482Z,101248.16
2022-09-02T14:43:53.745Z,101247.55
2022-09-02T14:46:30.044Z,101246.83
2022-09-02T14:49:10.647Z,101247.59
2022-09-02T14:51:53.118Z,101244.58
2022-09-02T14:54:52.524Z,101248.23
2022-09-02T14:57:23.040Z,101248.63
2022-09-02T14:59:55.116Z,101243.95
2022-09-02T15:02:30.779Z,101245.23
2022-09-02T15:05:04.748Z,101244.54
2022-09-02T15:07:38.751Z,101246.27
2022-09-02T15:10:10.978Z,101247.81
2022-09-02T15:12:48.967Z,101244.15
2022-09-02T15:15:20.368Z,101248.54
2022-09-02T15:17:51.017Z,101239.86
2022-09-02T15:20:22.971Z,101240.41
2022-09-02T15:22:55.706Z,101239.17
2022-09-02T15:25:27.256Z,101235.68
2022-09-02T15:28:00.118Z,101235.69
2022-09-02T15:30:31.646Z,101237.23
2022-09-02T15:33:05.985Z,101235.83
2022-09-02T15:35:37.086Z,101235.80
2022-09-02T15:38:09.129Z,101235.52
2022-09-02T15:40:39.761Z,101240.43
2022-09-02T15:43:10.458Z,101239.16
2022-09-02T15:45:48.204Z,101235.29
2022-09-02T15:48:18.507Z,101232.05
2022-09-02T15:50:49.052Z,101228.63
2022-09-02T15:53:24.704Z,101231.10
2022-09-02T15:55:55.039Z,101233.08
2022-09-02T15:58:25.434Z,101236.02
2022-09-02T16:00:58.676Z,101234.40
2022-09-02T16:03:31.504Z,101229.52
2022-09-02T16:06:06.844Z,101235.50
2022-09-02T16:08:37.495Z,101233.23
2022-09-02T16:11:10.220Z,101229.77
2022-09-02T16:13:41.042Z,101229.91
2022-09-02T16:16:13.966Z,101229.75
2022-09-02T16:18:45.267Z,101226.25
2022-09-02T16:21:15.746Z,101228.52
2022-09-02T16:23:46.316Z,101227.81
2022-09-02T16:26:38.688Z,101224.13
2022-09-02T16:29:10.916Z,101220.08
2022-09-02T16:31:42.981Z,101222.04
2022-09-02T16:34:16.566Z,101225.19
2022-09-02T16:36:51.030Z,101224.02
2022-09-02T16:39:21.705Z,101220.10
2022-09-02T16:41:54.692Z,101222.63
2022-09-02T16:44:27.168Z,101221.08
2022-09-02T16:46:57.766Z,101222.54
2022-09-02T16:49:28.039Z,101216.65
2022-09-02T16:51:58.751Z,101216.52
2022-09-02T16:54:31.885Z,101212.60
2022-09-02T16:57:06.638Z,101218.10
2022-09-02T16:59:37.440Z,101225.02
2022-09-02T17:02:07.967Z,101222.65
2022-09-02T17:04:41.832Z,101224.20
2022-09-02T17:07:12.189Z,101220.20
2022-09-02T17:09:45.497Z,101222.90
2022-09-02T17:12:19.011Z,101220.20
2022-09-02T17:14:49.587Z,101223.94
2022-09-02T17:17:20.000Z,101224.83
2022-09-02T17:19:50.655Z,101223.98
2022-09-02T17:22:21.328Z,101223.73
2022-09-02T17:24:53.789Z,101227.23
2022-09-02T17:27:24.532Z,101224.16
2022-09-02T17:29:55.271Z,101226.02
2022-09-02T17:32:26.446Z,101227.75
2022-09-02T17:34:57.086Z,101230.66
2022-09-02T17:37:28.249Z,101230.58
2022-09-02T17:39:58.690Z,101230.64
2022-09-02T17:42:28.979Z,101232.60
2022-09-02T17:44:59.732Z,101232.66
2022-09-02T17:47:32.266Z,101234.80
2022-09-02T17:50:02.804Z,101241.00
2022-09-02T17:52:33.308Z,101240.20
2022-09-02T17:55:04.148Z,101245.33
2022-09-02T17:57:51.820Z,101250.84
2022-09-02T18:00:23.958Z,101243.56
2022-09-02T18:03:16.111Z,101249.20
2022-09-02T18:05:57.019Z,101251.80
2022-09-02T18:08:39.786Z,101250.16
2022-09-02T18:11:10.410Z,101248.70
2022-09-02T18:14:02.037Z,101249.48
2022-09-02T18:16:51.621Z,101254.98
2022-09-02T18:19:22.208Z,101255.60
2022-09-02T18:21:56.168Z,101261.48
2022-09-02T18:24:59.465Z,101265.95
2022-09-02T18:27:41.650Z,101269.67
2022-09-02T18:30:30.254Z,101267.11
2022-09-02T18:33:06.934Z,101267.00
2022-09-02T18:35:50.300Z,101270.95
2022-09-02T18:38:41.428Z,101268.97
2022-09-02T18:41:22.578Z,101274.96
2022-09-02T18:44:10.268Z,101274.69
2022-09-02T18:46:49.367Z,101275.48
2022-09-02T18:49:22.070Z,101275.52
2022-09-02T18:51:57.991Z,101274.19
2022-09-02T18:54:35.990Z,101271.33
2022-09-02T18:57:10.635Z,101271.06
2022-09-02T18:59:43.771Z,101270.29
2022-09-02T19:02:23.004Z,101268.23
2022-09-02T19:04:53.752Z,101271.81
2022-09-02T19:07:42.066Z,101274.89
2022-09-02T19:10:14.689Z,101272.90
2022-09-02T19:12:54.794Z,101273.86
2022-09-02T19:15:26.848Z,101272.55
2022-09-02T19:17:57.649Z,101276.13
2022-09-02T19:20:28.973Z,101274.63
2022-09-02T19:23:00.278Z,101277.12
2022-09-02T19:25:32.440Z,101277.73
2022-09-02T19:28:06.789Z,101279.02
2022-09-02T19:30:39.620Z,101283.80
2022-09-02T19:33:15.459Z,101282.30
2022-09-02T19:35:51.338Z,101284.61
2022-09-02T19:38:22.193Z,101279.43
2022-09-02T19:40:52.969Z,101282.42
2022-09-02T19:43:23.671Z,101278.11
2022-09-02T19:45:54.244Z,101279.34
2022-09-02T19:48:25.147Z,101281.67
2022-09-02T19:50:56.900Z,101276.52
2022-09-02T19:53:30.567Z,101275.89
2022-09-02T19:56:02.294Z,101281.17
2022-09-02T19:58:32.918Z,101283.30
2022-09-02T20:01:04.871Z,101286.80
2022-09-02T20:03:36.132Z,101289.11
2022-09-02T20:06:06.503Z,101287.79
2022-09-02T20:08:36.973Z,101291.48
2022-09-02T20:11:08.778Z,101290.16
2022-09-02T20:13:41.562Z,101291.98
2022-09-02T20:16:29.470Z,101289.95
2022-09-02T20:19:00.520Z,101287.20
2022-09-02T20:21:42.700Z,101288.48
2022-09-02T20:24:21.048Z,101285.42
2022-09-02T20:27:05.808Z,101287.73
2022-09-02T20:29:39.449Z,101289.13
2022-09-02T20:32:48.017Z,101288.67
2022-09-02T20:35:40.257Z,101290.30
2022-09-02T20:38:48.707Z,101290.91
2022-09-02T20:41:41.688Z,101292.02
2022-09-02T20:44:34.456Z,101294.66
2022-09-02T20:47:31.528Z,101294.34
2022-09-02T20:50:31.589Z,101297.14
2022-09-02T20:53:27.417Z,101296.69
2022-09-02T20:56:12.346Z,101299.84
2022-09-02T20:59:40.957Z,101295.01
2022-09-02T21:02:18.872Z,101302.38
2022-09-02T21:04:56.238Z,101305.71
2022-09-02T21:07:33.104Z,101310.27
2022-09-02T21:10:11.128Z,101310.11
2022-09-02T21:13:26.329Z,101311.00
2022-09-02T21:16:12.318Z,101315.52
2022-09-02T21:19:19.637Z,101318.48
2022-09-02T21:21:58.971Z,101320.59
2022-09-02T21:24:47.566Z,101321.83
2022-09-02T21:27:29.658Z,101321.88
2022-09-02T21:30:10.330Z,101322.92
2022-09-02T21:33:02.233Z,101322.44
2022-09-02T21:35:49.603Z,101324.21
2022-09-02T21:38:38.724Z,101321.46
2022-09-02T21:41:39.389Z,101318.00
2022-09-02T21:44:51.616Z,101316.11
2022-09-02T21:47:33.356Z,101322.58
2022-09-02T21:50:22.014Z,101323.99
2022-09-02T21:53:19.688Z,101319.65
2022-09-02T21:56:03.798Z,101325.77
2022-09-02T21:58:55.734Z,101322.80
2022-09-02T22:01:44.919Z,101330.14
2022-09-02T22:04:33.869Z,101327.53
2022-09-02T22:07:20.551Z,101327.39
2022-09-02T22:10:14.310Z,101330.40
2022-09-02T22:12:52.419Z,101329.24
2022-09-02T22:15:37.559Z,101324.04
2022-09-02T22:18:16.044Z,101330.16
2022-09-02T22:20:51.570Z,101327.59
2022-09-02T22:23:26.988Z,101325.05
2022-09-02T22:26:04.379Z,101321.25
2022-09-02T22:28:44.808Z,101321.84
2022-09-02T22:31:19.931Z,101323.30
2022-09-02T22:33:56.640Z,101328.07
2022-09-02T22:36:50.777Z,101332.65
2022-09-02T22:39:29.238Z,101330.79
2022-09-02T22:42:22.090Z,101328.89
2022-09-02T22:45:26.339Z,101333.23
2022-09-02T22:48:23.499Z,101332.76
2022-09-02T22:51:19.158Z,101331.05
2022-09-02T22:53:52.367Z,101327.08
2022-09-02T22:56:40.414Z,101318.23
2022-09-02T22:59:49.219Z,101318.23
2022-09-02T23:02:36.648Z,101316.52
2022-09-02T23:05:07.069Z,101314.50
2022-09-02T23:07:40.127Z,101314.35
2022-09-02T23:10:24.864Z,101312.80
2022-09-02T23:13:14.586Z,101314.44
2022-09-02T23:16:14.652Z,101313.61
2022-09-02T23:18:54.507Z,101312.57
2022-09-02T23:21:29.486Z,101313.84
2022-09-02T23:24:09.749Z,101317.90
2022-09-02T23:26:55.318Z,101319.04
2022-09-02T23:29:28.556Z,101322.38
2022-09-02T23:32:01.626Z,101320.79
2022-09-02T23:35:02.856Z,101323.60
2022-09-02T23:37:44.368Z,101321.02
2022-09-02T23:40:33.329Z,101319.47
2022-09-02T23:43:04.827Z,101321.71
2022-09-02T23:45:37.811Z,101319.83
2022-09-02T23:48:44.116Z,101323.81
2022-09-02T23:51:20.459Z,101325.56
2022-09-02T23:54:52.709Z,101326.94
2022-09-02T23:57:55.044Z,101331.84
